sensor_id;sensor_type;location;lat;lon;timestamp;pressure;altitude;pressure_sealevel;temperature;humidity
48800;BME280;34611;47.964;7.982;2023-01-29T00:06:11;97640.09;;;10.09;57.16
48800;BME280;34611;47.964;7.982;2023-01-29T00:13:12;97640.00;;;10.11;57.12
48800;BME280;34611;47.964;7.982;2023-01-29T00:20:12;97640.09;;;10.09;57.01
48800;BME280;34611;47.964;7.982;2023-01-29T00:27:12;97642.69;;;10.09;57.06
48800;BME280;34611;47.964;7.982;2023-01-29T00:34:13;97640.09;;;10.09;57.21
48800;BME280;34611;47.964;7.982;2023-01-29T00:41:13;97646.00;;;10.11;56.95
48800;BME280;34611;47.964;7.982;2023-01-29T00:48:33;97647.88;;;10.09;57.05
48800;BME280;34611;47.964;7.982;2023-01-29T00:55:33;97634.88;;;10.09;57.18
48800;BME280;34611;47.964;7.982;2023-01-29T01:02:34;97638.22;;;10.11;56.92
48800;BME280;34611;47.964;7.982;2023-01-29T01:09:52;97621.72;;;10.12;57.00
48800;BME280;34611;47.964;7.982;2023-01-29T01:17:12;97631.16;;;10.13;57.00
48800;BME280;34611;47.964;7.982;2023-01-29T01:24:12;97635.53;;;10.13;57.12
48800;BME280;34611;47.964;7.982;2023-01-29T01:31:13;97635.63;;;10.11;57.04
48800;BME280;34611;47.964;7.982;2023-01-29T01:38:14;97635.63;;;10.11;57.04
48800;BME280;34611;47.964;7.982;2023-01-29T01:52:18;97633.75;;;10.13;56.96
48800;BME280;34611;47.964;7.982;2023-01-29T01:59:18;97633.84;;;10.12;57.16
48800;BME280;34611;47.964;7.982;2023-01-29T02:06:19;97634.69;;;10.12;57.21
48800;BME280;34611;47.964;7.982;2023-01-29T02:13:38;97629.38;;;10.14;57.00
48800;BME280;34611;47.964;7.982;2023-01-29T02:20:38;97640.63;;;10.15;56.96
48800;BME280;34611;47.964;7.982;2023-01-29T02:34:58;97637.16;;;10.14;57.18
48800;BME280;34611;47.964;7.982;2023-01-29T02:56:40;97643.09;;;10.16;56.98
48800;BME280;34611;47.964;7.982;2023-01-29T03:03:50;97641.44;;;10.15;57.23
48800;BME280;34611;47.964;7.982;2023-01-29T03:10:54;97655.34;;;10.14;57.11
48800;BME280;34611;47.964;7.982;2023-01-29T03:17:58;97664.00;;;10.15;57.15
48800;BME280;34611;47.964;7.982;2023-01-29T03:25:00;97665.75;;;10.14;57.23
48800;BME280;34611;47.964;7.982;2023-01-29T03:32:21;97663.03;;;10.16;57.09
48800;BME280;34611;47.964;7.982;2023-01-29T03:39:25;97662.22;;;10.15;56.98
48800;BME280;34611;47.964;7.982;2023-01-29T03:46:34;97664.72;;;10.17;57.28
48800;BME280;34611;47.964;7.982;2023-01-29T03:53:47;97664.00;;;10.15;57.30
48800;BME280;34611;47.964;7.982;2023-01-29T04:00:51;97650.78;;;10.18;57.08
48800;BME280;34611;47.964;7.982;2023-01-29T04:07:56;97652.66;;;10.16;57.11
48800;BME280;34611;47.964;7.982;2023-01-29T04:15:00;97666.16;;;10.21;57.00
48800;BME280;34611;47.964;7.982;2023-01-29T04:29:46;97660.34;;;10.17;57.17
48800;BME280;34611;47.964;7.982;2023-01-29T04:44:09;97651.72;;;10.17;57.37
48800;BME280;34611;47.964;7.982;2023-01-29T04:51:19;97638.75;;;10.17;57.35
48800;BME280;34611;47.964;7.982;2023-01-29T04:58:31;97649.81;;;10.19;57.12
48800;BME280;34611;47.964;7.982;2023-01-29T05:05:33;97646.22;;;10.21;57.36
48800;BME280;34611;47.964;7.982;2023-01-29T05:12:33;97649.72;;;10.20;57.27
48800;BME280;34611;47.964;7.982;2023-01-29T05:19:35;97648.81;;;10.21;57.11
48800;BME280;34611;47.964;7.982;2023-01-29T05:26:35;97654.09;;;10.20;57.33
48800;BME280;34611;47.964;7.982;2023-01-29T05:33:54;97660.94;;;10.21;57.23
48800;BME280;34611;47.964;7.982;2023-01-29T05:40:57;97662.00;;;10.18;57.15
48800;BME280;34611;47.964;7.982;2023-01-29T05:47:57;97663.66;;;10.19;57.26
48800;BME280;34611;47.964;7.982;2023-01-29T05:54:58;97661.81;;;10.21;57.41
48800;BME280;34611;47.964;7.982;2023-01-29T06:01:58;97675.81;;;10.19;57.29
48800;BME280;34611;47.964;7.982;2023-01-29T06:08:58;97681.72;;;10.21;57.41
48800;BME280;34611;47.964;7.982;2023-01-29T06:15:58;97682.69;;;10.20;57.47
48800;BME280;34611;47.964;7.982;2023-01-29T06:22:59;97655.03;;;10.19;57.46
48800;BME280;34611;47.964;7.982;2023-01-29T06:29:59;97638.50;;;10.20;57.35
48800;BME280;34611;47.964;7.982;2023-01-29T06:36:59;97631.63;;;10.19;57.48
48800;BME280;34611;47.964;7.982;2023-01-29T06:44:00;97642.75;;;10.21;57.54
48800;BME280;34611;47.964;7.982;2023-01-29T06:51:03;97668.66;;;10.22;57.33
48800;BME280;34611;47.964;7.982;2023-01-29T06:58:05;97673.03;;;10.22;57.29
48800;BME280;34611;47.964;7.982;2023-01-29T07:05:05;97687.88;;;10.20;57.59
48800;BME280;34611;47.964;7.982;2023-01-29T07:12:06;97700.78;;;10.21;57.36
48800;BME280;34611;47.964;7.982;2023-01-29T07:19:07;97714.59;;;10.22;57.55
48800;BME280;34611;47.964;7.982;2023-01-29T07:26:07;97723.94;;;10.24;57.43
48800;BME280;34611;47.964;7.982;2023-01-29T07:33:08;97723.94;;;10.24;57.47
48800;BME280;34611;47.964;7.982;2023-01-29T07:40:09;97728.31;;;10.24;57.40
48800;BME280;34611;47.964;7.982;2023-01-29T07:47:10;97731.72;;;10.24;57.37
48800;BME280;34611;47.964;7.982;2023-01-29T07:54:11;97716.69;;;10.42;61.19
48800;BME280;34611;47.964;7.982;2023-01-29T08:02:25;97727.59;;;10.35;59.75
48800;BME280;34611;47.964;7.982;2023-01-29T08:09:25;97741.41;;;10.35;59.33
48800;BME280;34611;47.964;7.982;2023-01-29T08:16:25;97755.25;;;10.36;58.92
48800;BME280;34611;47.964;7.982;2023-01-29T08:23:26;97763.16;;;10.34;58.96
48800;BME280;34611;47.964;7.982;2023-01-29T08:30:27;97777.81;;;10.35;58.72
48800;BME280;34611;47.964;7.982;2023-01-29T08:37:28;97789.25;;;10.32;58.63
48800;BME280;34611;47.964;7.982;2023-01-29T08:44:28;97786.66;;;10.32;58.45
48800;BME280;34611;47.964;7.982;2023-01-29T08:51:28;97796.00;;;10.35;58.35
48800;BME280;34611;47.964;7.982;2023-01-29T08:58:28;97791.75;;;10.34;58.56
48800;BME280;34611;47.964;7.982;2023-01-29T09:05:29;97787.47;;;10.33;58.29
48800;BME280;34611;47.964;7.982;2023-01-29T09:12:29;97796.84;;;10.36;58.31
48800;BME280;34611;47.964;7.982;2023-01-29T09:19:29;97801.19;;;10.35;58.48
48800;BME280;34611;47.964;7.982;2023-01-29T09:26:29;97816.91;;;10.33;58.48
48800;BME280;34611;47.964;7.982;2023-01-29T09:33:30;97821.25;;;10.33;58.36
48800;BME280;34611;47.964;7.982;2023-01-29T09:48:00;97799.44;;;10.36;58.35
48800;BME280;34611;47.964;7.982;2023-01-29T09:55:03;97798.72;;;10.33;58.46
48800;BME280;34611;47.964;7.982;2023-01-29T10:02:07;97809.94;;;10.34;58.26
48800;BME280;34611;47.964;7.982;2023-01-29T10:30:31;97761.78;;;10.41;59.03
48800;BME280;34611;47.964;7.982;2023-01-29T10:37:39;97736.84;;;10.39;59.16
48800;BME280;34611;47.964;7.982;2023-01-29T10:51:52;97696.00;;;10.41;58.92
48800;BME280;34611;47.964;7.982;2023-01-29T10:58:54;97690.88;;;10.39;58.99
48800;BME280;34611;47.964;7.982;2023-01-29T11:12:56;97696.72;;;10.43;58.75
48800;BME280;34611;47.964;7.982;2023-01-29T11:19:57;97692.75;;;10.37;58.93
48800;BME280;34611;47.964;7.982;2023-01-29T11:26:58;97712.72;;;10.37;58.73
48800;BME280;34611;47.964;7.982;2023-01-29T11:34:02;97701.28;;;10.39;58.65
48800;BME280;34611;47.964;7.982;2023-01-29T11:41:06;97706.47;;;10.39;58.79
48800;BME280;34611;47.964;7.982;2023-01-29T11:48:22;97701.09;;;10.42;58.86
48800;BME280;34611;47.964;7.982;2023-01-29T11:55:25;97672.69;;;10.39;58.63
48800;BME280;34611;47.964;7.982;2023-01-29T12:09:27;97679.66;;;10.39;58.54
48800;BME280;34611;47.964;7.982;2023-01-29T12:23:34;97675.09;;;10.42;58.72
48800;BME280;34611;47.964;7.982;2023-01-29T12:30:43;97661.38;;;10.40;58.48
48800;BME280;34611;47.964;7.982;2023-01-29T12:37:51;97655.47;;;10.38;58.64
48800;BME280;34611;47.964;7.982;2023-01-29T12:44:54;97648.38;;;10.40;58.67
48800;BME280;34611;47.964;7.982;2023-01-29T12:52:01;97648.47;;;10.39;58.56
48800;BME280;34611;47.964;7.982;2023-01-29T12:59:12;97643.28;;;10.39;58.61
48800;BME280;34611;47.964;7.982;2023-01-29T13:06:17;97630.38;;;10.37;58.66
48800;BME280;34611;47.964;7.982;2023-01-29T13:13:27;97613.03;;;10.38;58.64
48800;BME280;34611;47.964;7.982;2023-01-29T13:20:30;97604.41;;;10.37;58.50
48800;BME280;34611;47.964;7.982;2023-01-29T13:27:32;97604.19;;;10.40;58.38
48800;BME280;34611;47.964;7.982;2023-01-29T13:34:37;97587.97;;;10.37;58.62
48800;BME280;34611;47.964;7.982;2023-01-29T13:41:43;97575.81;;;10.37;58.37
48800;BME280;34611;47.964;7.982;2023-01-29T13:48:44;97569.53;;;10.52;58.47
48800;BME280;34611;47.964;7.982;2023-01-29T13:55:45;97555.81;;;10.50;58.81
48800;BME280;34611;47.964;7.982;2023-01-29T14:03:32;97549.06;;;10.48;59.10
48800;BME280;34611;47.964;7.982;2023-01-29T14:10:13;97551.97;;;10.43;59.07
48800;BME280;34611;47.964;7.982;2023-01-29T14:17:17;97566.84;;;10.41;58.87
48800;BME280;34611;47.964;7.982;2023-01-29T14:24:20;97566.84;;;10.41;58.71
48800;BME280;34611;47.964;7.982;2023-01-29T14:31:31;97575.59;;;10.40;58.70
48800;BME280;34611;47.964;7.982;2023-01-29T14:38:35;97585.78;;;10.43;58.65
48800;BME280;34611;47.964;7.982;2023-01-29T14:45:36;97583.94;;;10.32;59.11
48800;BME280;34611;47.964;7.982;2023-01-29T14:52:43;97585.88;;;10.29;58.98
48800;BME280;34611;47.964;7.982;2023-01-29T15:00:00;97593.47;;;10.45;58.96
48800;BME280;34611;47.964;7.982;2023-01-29T15:07:02;97594.34;;;10.32;59.16
48800;BME280;34611;47.964;7.982;2023-01-29T15:21:22;97622.09;;;10.32;59.21
48800;BME280;34611;47.964;7.982;2023-01-29T15:28:23;97625.63;;;10.31;59.20
48800;BME280;34611;47.964;7.982;2023-01-29T15:35:34;97627.41;;;10.30;59.25
48800;BME280;34611;47.964;7.982;2023-01-29T15:42:45;97633.06;;;10.48;58.91
48800;BME280;34611;47.964;7.982;2023-01-29T15:49:47;97636.88;;;10.31;58.34
48800;BME280;34611;47.964;7.982;2023-01-29T15:56:51;97635.72;;;10.10;56.45
48800;BME280;34611;47.964;7.982;2023-01-29T16:03:51;97634.69;;;10.00;56.12
48800;BME280;34611;47.964;7.982;2023-01-29T16:10:57;97642.69;;;9.97;55.38
48800;BME280;34611;47.964;7.982;2023-01-29T16:17:58;97640.53;;;9.90;55.13
48800;BME280;34611;47.964;7.982;2023-01-29T16:25:03;97648.41;;;9.89;54.42
48800;BME280;34611;47.964;7.982;2023-01-29T16:32:04;97652.16;;;9.85;54.22
48800;BME280;34611;47.964;7.982;2023-01-29T16:39:05;97643.03;;;9.79;54.13
48800;BME280;34611;47.964;7.982;2023-01-29T16:53:20;97633.25;;;9.83;54.62
48800;BME280;34611;47.964;7.982;2023-01-29T17:00:25;97623.72;;;9.83;54.57
48800;BME280;34611;47.964;7.982;2023-01-29T17:07:26;97630.66;;;9.83;54.54
48800;BME280;34611;47.964;7.982;2023-01-29T17:14:29;97644.03;;;9.89;54.39
48800;BME280;34611;47.964;7.982;2023-01-29T17:21:29;97642.91;;;9.81;54.40
48800;BME280;34611;47.964;7.982;2023-01-29T17:28:29;97626.72;;;9.77;54.05
48800;BME280;34611;47.964;7.982;2023-01-29T17:35:30;97633.78;;;9.75;54.00
48800;BME280;34611;47.964;7.982;2023-01-29T17:42:30;97630.34;;;9.75;53.91
48800;BME280;34611;47.964;7.982;2023-01-29T17:49:30;97634.81;;;9.72;54.03
48800;BME280;34611;47.964;7.982;2023-01-29T17:56:34;97635.84;;;9.70;54.10
48800;BME280;34611;47.964;7.982;2023-01-29T18:03:35;97641.88;;;9.70;54.01
48800;BME280;34611;47.964;7.982;2023-01-29T18:10:35;97642.81;;;9.69;53.76
48800;BME280;34611;47.964;7.982;2023-01-29T18:17:35;97641.38;;;9.65;53.67
48800;BME280;34611;47.964;7.982;2023-01-29T18:24:36;97654.44;;;9.51;53.03
48800;BME280;34611;47.964;7.982;2023-01-29T18:31:36;97658.47;;;9.29;52.40
48800;BME280;34611;47.964;7.982;2023-01-29T18:38:36;97671.81;;;9.23;51.90
48800;BME280;34611;47.964;7.982;2023-01-29T18:45:36;97673.06;;;9.18;51.68
48800;BME280;34611;47.964;7.982;2023-01-29T18:52:37;97679.72;;;9.35;52.07
48800;BME280;34611;47.964;7.982;2023-01-29T18:59:37;97667.19;;;9.41;52.26
48800;BME280;34611;47.964;7.982;2023-01-29T19:06:37;97667.72;;;9.46;52.51
48800;BME280;34611;47.964;7.982;2023-01-29T19:13:38;97659.00;;;9.47;52.40
48800;BME280;34611;47.964;7.982;2023-01-29T19:20:39;97650.38;;;9.47;52.27
48800;BME280;34611;47.964;7.982;2023-01-29T19:27:41;97658.91;;;9.49;52.45
48800;BME280;34611;47.964;7.982;2023-01-29T19:34:41;97643.41;;;9.47;52.44
48800;BME280;34611;47.964;7.982;2023-01-29T19:41:41;97645.41;;;9.44;52.05
48800;BME280;34611;47.964;7.982;2023-01-29T19:48:41;97657.84;;;9.39;51.83
48800;BME280;34611;47.964;7.982;2023-01-29T19:55:42;97666.78;;;9.47;51.77
48800;BME280;34611;47.964;7.982;2023-01-29T20:02:42;97670.63;;;9.42;51.97
48800;BME280;34611;47.964;7.982;2023-01-29T20:09:42;97668.75;;;9.44;51.94
48800;BME280;34611;47.964;7.982;2023-01-29T20:16:42;97669.69;;;9.43;51.92
48800;BME280;34611;47.964;7.982;2023-01-29T20:23:42;97670.50;;;9.43;52.00
48800;BME280;34611;47.964;7.982;2023-01-29T20:30:43;97668.13;;;9.40;51.86
48800;BME280;34611;47.964;7.982;2023-01-29T20:37:44;97667.31;;;9.40;51.70
48800;BME280;34611;47.964;7.982;2023-01-29T20:44:44;97664.81;;;9.38;51.67
48800;BME280;34611;47.964;7.982;2023-01-29T20:51:44;97661.16;;;9.41;51.80
48800;BME280;34611;47.964;7.982;2023-01-29T20:58:45;97665.91;;;9.21;50.80
48800;BME280;34611;47.964;7.982;2023-01-29T21:05:45;97669.59;;;9.04;50.37
48800;BME280;34611;47.964;7.982;2023-01-29T21:12:46;97660.84;;;8.93;50.06
48800;BME280;34611;47.964;7.982;2023-01-29T21:19:46;97650.03;;;8.86;49.96
48800;BME280;34611;47.964;7.982;2023-01-29T21:26:46;97646.78;;;8.82;49.54
48800;BME280;34611;47.964;7.982;2023-01-29T21:33:46;97643.88;;;9.14;50.05
48800;BME280;34611;47.964;7.982;2023-01-29T21:40:47;97642.66;;;9.20;50.36
48800;BME280;34611;47.964;7.982;2023-01-29T21:47:47;97637.25;;;9.23;50.57
48800;BME280;34611;47.964;7.982;2023-01-29T21:54:47;97635.38;;;9.25;50.68
48800;BME280;34611;47.964;7.982;2023-01-29T22:01:48;97632.78;;;9.25;50.66
48800;BME280;34611;47.964;7.982;2023-01-29T22:08:48;97621.50;;;9.26;50.39
48800;BME280;34611;47.964;7.982;2023-01-29T22:15:48;97609.56;;;9.23;50.49
48800;BME280;34611;47.964;7.982;2023-01-29T22:22:53;97598.25;;;9.24;50.30
48800;BME280;34611;47.964;7.982;2023-01-29T22:29:53;97587.13;;;9.22;50.30
48800;BME280;34611;47.964;7.982;2023-01-29T22:36:53;97575.63;;;9.26;50.55
48800;BME280;34611;47.964;7.982;2023-01-29T22:43:53;97570.53;;;9.25;50.20
48800;BME280;34611;47.964;7.982;2023-01-29T22:50:54;97568.97;;;9.22;50.15
48800;BME280;34611;47.964;7.982;2023-01-29T22:58:08;97575.22;;;9.20;49.93
48800;BME280;34611;47.964;7.982;2023-01-29T23:05:09;97570.66;;;9.23;50.17
48800;BME280;34611;47.964;7.982;2023-01-29T23:12:09;97571.47;;;9.24;50.43
48800;BME280;34611;47.964;7.982;2023-01-29T23:19:09;97572.53;;;9.21;49.90
48800;BME280;34611;47.964;7.982;2023-01-29T23:26:11;97576.03;;;9.20;49.99
48800;BME280;34611;47.964;7.982;2023-01-29T23:33:30;97581.22;;;9.20;50.07
48800;BME280;34611;47.964;7.982;2023-01-29T23:40:30;97570.84;;;9.20;50.04
48800;BME280;34611;47.964;7.982;2023-01-29T23:47:31;97565.66;;;9.20;50.01
48800;BME280;34611;47.964;7.982;2023-01-29T23:54:31;97538.88;;;9.20;49.87
